Time;durP1;ratioP1;P1;durP2;ratioP2;P2;SDS_P1;SDS_P2;PMS_P1;PMS_P2;Temp;Humidity;BMP_temperature;BMP_pressure;BME280_temperature;BME280_humidity;BME280_pressure;Samples;Min_cycle;Max_cycle;Signal;HPM_P1;HPM_P2
2022/04/06 00:00:42;;;;;;;39.75;17.15;;;;;;;;;;4962857;28;20493;-77
2022/04/06 00:03:08;;;;;;;38.17;16.70;;;;;;;;;;4974881;28;20409;-77
2022/04/06 00:05:35;;;;;;;37.88;16.85;;;;;;;;;;4974193;28;20421;-77
2022/04/06 00:08:01;;;;;;;39.00;16.07;;;;;;;;;;4992381;28;20427;-77
2022/04/06 00:10:28;;;;;;;34.50;15.93;;;;;;;;;;4991161;28;20427;-77
2022/04/06 00:12:54;;;;;;;36.92;15.90;;;;;;;;;;4972418;28;21023;-77
2022/04/06 00:15:21;;;;;;;36.63;16.70;;;;;;;;;;4993378;28;20452;-77
2022/04/06 00:17:47;;;;;;;46.83;16.52;;;9.00;99.90;;;;;;4980683;28;20430;-77
2022/04/06 00:20:14;;;;;;;36.40;15.63;;;;;;;;;;5013762;28;20420;-77
2022/04/06 00:22:41;;;;;;;34.92;16.40;;;;;;;;;;5009731;28;20461;-76
2022/04/06 00:25:07;;;;;;;40.38;16.70;;;;;;;;;;4999200;28;20438;-75
2022/04/06 00:27:33;;;;;;;36.07;16.27;;;8.90;99.90;;;;;;4980639;28;20434;-77
2022/04/06 00:29:59;;;;;;;33.38;15.02;;;;;;;;;;4994115;28;20489;-77
2022/04/06 00:32:25;;;;;;;33.40;15.50;;;;;;;;;;4978332;28;20406;-77
2022/04/06 00:37:36;;;;;;;35.77;15.97;;;;;;;;;;4981712;28;20429;-78
2022/04/06 00:40:03;;;;;;;37.30;15.50;;;;;;;;;;4966626;28;20438;-78
2022/04/06 00:42:29;;;;;;;34.58;15.70;;;;;;;;;;4973491;28;20508;-76
2022/04/06 00:44:55;;;;;;;32.80;14.70;;;;;;;;;;4959319;28;20555;-77
2022/04/06 00:47:21;;;;;;;34.08;14.77;;;;;;;;;;4963655;28;20998;-77
2022/04/06 00:49:47;;;;;;;40.05;15.95;;;;;;;;;;4995654;28;20414;-77
2022/04/06 00:52:13;;;;;;;35.20;14.57;;;8.70;99.90;;;;;;4963707;28;20438;-77
2022/04/06 00:54:39;;;;;;;30.95;14.68;;;;;;;;;;4994893;28;20429;-76
2022/04/06 00:57:05;;;;;;;34.08;15.52;;;;;;;;;;4965058;28;20439;-77
2022/04/06 00:59:31;;;;;;;36.28;14.45;;;;;;;;;;5013372;28;20454;-77
2022/04/06 01:01:58;;;;;;;31.58;14.20;;;;;;;;;;4976564;28;20519;-77
2022/04/06 01:04:25;;;;;;;30.75;13.75;;;;;;;;;;4988036;28;20498;-77
2022/04/06 01:06:52;;;;;;;31.05;13.40;;;9.00;99.90;;;;;;4974773;28;20442;-77
2022/04/06 01:09:18;;;;;;;33.55;13.30;;;;;;;;;;4965363;28;20435;-77
2022/04/06 01:11:45;;;;;;;28.02;13.38;;;;;;;;;;4975565;28;20438;-78
2022/04/06 01:14:12;;;;;;;33.33;13.95;;;;;;;;;;4992601;28;20502;-78
2022/04/06 01:16:39;;;;;;;35.00;12.93;;;;;;;;;;5003408;28;20956;-78
2022/04/06 01:19:05;;;;;;;28.52;13.32;;;;;;;;;;4994023;28;20790;-77
2022/04/06 01:21:31;;;;;;;31.50;13.00;;;;;;;;;;4984925;28;20560;-76
2022/04/06 01:23:57;;;;;;;28.08;13.30;;;;;;;;;;5007991;28;20427;-77
2022/04/06 01:26:24;;;;;;;29.30;13.27;;;;;;;;;;4965231;28;20428;-77
2022/04/06 01:28:51;;;;;;;29.77;13.27;;;;;;;;;;4976820;28;20426;-77
2022/04/06 01:31:17;;;;;;;30.30;11.88;;;;;;;;;;4992252;28;20422;-77
2022/04/06 01:33:43;;;;;;;28.40;12.40;;;;;;;;;;4970318;28;20432;-77
2022/04/06 01:36:09;;;;;;;28.17;12.33;;;;;;;;;;4969939;28;20441;-77
2022/04/06 01:38:35;;;;;;;29.50;11.95;;;;;;;;;;5005310;28;20432;-77
2022/04/06 01:41:02;;;;;;;24.20;11.27;;;;;;;;;;4992411;28;20416;-77
2022/04/06 01:43:28;;;;;;;27.98;10.73;;;;;;;;;;5012712;28;20405;-77
2022/04/06 01:45:54;;;;;;;25.25;10.27;;;;;;;;;;4976773;28;20438;-77
2022/04/06 01:48:20;;;;;;;25.52;11.00;;;;;;;;;;5009248;28;20475;-77
2022/04/06 01:53:31;;;;;;;24.65;9.50;;;9.00;99.90;;;;;;4984982;28;20431;-76
2022/04/06 01:55:58;;;;;;;22.80;9.45;;;;;;;;;;4968506;28;20506;-76
2022/04/06 01:58:24;;;;;;;18.70;8.60;;;;;;;;;;4973811;28;20440;-76
2022/04/06 02:00:51;;;;;;;22.10;9.00;;;;;;;;;;4998805;28;20421;-76
2022/04/06 02:03:17;;;;;;;20.65;8.48;;;;;;;;;;4972989;28;20459;-76
2022/04/06 02:05:43;;;;;;;17.65;7.60;;;;;;;;;;4983867;28;20440;-77
2022/04/06 02:08:10;;;;;;;17.58;7.13;;;;;;;;;;4989552;28;20443;-76
2022/04/06 02:10:39;;;;;;;20.60;7.53;;;;;;;;;;4985464;28;20442;-76
2022/04/06 02:13:05;;;;;;;16.02;7.13;;;;;;;;;;4990765;28;20453;-76
2022/04/06 02:15:31;;;;;;;20.52;6.93;;;;;;;;;;5005652;28;20478;-77
2022/04/06 02:17:57;;;;;;;20.45;7.40;;;;;;;;;;4998703;28;20427;-76
2022/04/06 02:20:24;;;;;;;13.48;6.38;;;;;;;;;;4981508;28;20437;-77
2022/04/06 02:22:50;;;;;;;14.00;6.40;;;;;;;;;;4976790;28;20411;-77
2022/04/06 02:25:16;;;;;;;16.30;6.47;;;;;;;;;;4974594;28;20440;-76
2022/04/06 02:27:45;;;;;;;18.20;6.63;;;;;;;;;;4991713;28;20419;-77
2022/04/06 02:30:12;;;;;;;15.03;5.90;;;;;;;;;;5003540;28;20440;-76
2022/04/06 02:32:38;;;;;;;14.23;5.57;;;;;;;;;;4989473;28;20459;-77
2022/04/06 02:35:04;;;;;;;14.77;5.60;;;;;;;;;;4975403;28;20442;-77
2022/04/06 02:37:30;;;;;;;13.50;5.00;;;;;;;;;;4991238;28;20443;-77
2022/04/06 02:39:56;;;;;;;15.05;5.13;;;;;;;;;;4980619;28;20436;-77
2022/04/06 02:42:22;;;;;;;16.88;5.50;;;;;;;;;;4978786;28;20513;-77
2022/04/06 02:44:48;;;;;;;12.73;5.63;;;;;;;;;;5002706;28;20452;-76
2022/04/06 02:47:14;;;;;;;16.27;5.40;;;;;;;;;;4961522;28;20427;-77
2022/04/06 02:49:40;;;;;;;16.00;5.38;;;;;;;;;;4992731;28;20434;-76
2022/04/06 02:52:07;;;;;;;12.55;5.13;;;;;;;;;;4994453;28;20427;-76
2022/04/06 02:54:34;;;;;;;12.65;4.80;;;;;;;;;;4992985;28;20490;-77
2022/04/06 02:57:00;;;;;;;12.57;4.90;;;;;;;;;;4988920;28;20422;-76
2022/04/06 02:59:26;;;;;;;10.25;4.15;;;;;;;;;;5009152;28;20450;-75
2022/04/06 03:01:52;;;;;;;12.05;4.57;;;;;;;;;;4980279;28;20439;-76
2022/04/06 03:04:18;;;;;;;11.20;4.43;;;;;;;;;;4976680;28;20435;-76
2022/04/06 03:06:44;;;;;;;14.00;4.70;;;;;;;;;;4994627;28;20492;-77
2022/04/06 03:09:10;;;;;;;12.43;4.40;;;;;;;;;;4976308;28;20472;-75
2022/04/06 03:11:37;;;;;;;10.70;4.55;;;;;;;;;;4999708;28;20939;-78
2022/04/06 03:14:04;;;;;;;11.93;4.57;;;8.90;99.90;;;;;;5007708;28;20431;-78
2022/04/06 03:16:30;;;;;;;12.80;5.00;;;;;;;;;;4990467;28;20483;-78
2022/04/06 03:18:57;;;;;;;15.10;4.80;;;;;;;;;;4978272;28;20939;-78
2022/04/06 03:21:23;;;;;;;14.35;5.68;;;;;;;;;;4996553;28;20433;-77
2022/04/06 03:23:50;;;;;;;13.07;4.57;;;;;;;;;;4987141;28;20488;-78
2022/04/06 03:26:16;;;;;;;10.90;4.70;;;;;;;;;;4971154;28;20458;-76
2022/04/06 03:28:42;;;;;;;16.10;5.30;;;;;;;;;;4959670;28;20416;-77
2022/04/06 03:31:08;;;;;;;17.27;5.93;;;;;;;;;;4959124;28;20496;-76
2022/04/06 03:33:35;;;;;;;15.17;5.87;;;;;;;;;;4974616;28;20444;-76
2022/04/06 03:36:01;;;;;;;17.27;6.28;;;;;;;;;;4976717;28;20986;-76
2022/04/06 03:38:27;;;;;;;20.55;7.28;;;8.90;99.90;;;;;;4982880;28;20455;-75
2022/04/06 03:40:53;;;;;;;19.98;6.78;;;;;;;;;;4971533;28;20426;-77
2022/04/06 03:43:19;;;;;;;18.58;7.32;;;;;;;;;;4986007;28;20432;-78
2022/04/06 03:45:45;;;;;;;19.95;7.45;;;;;;;;;;4996581;28;20473;-78
2022/04/06 03:48:11;;;;;;;19.30;7.38;;;;;;;;;;4994888;28;20491;-78
2022/04/06 03:50:38;;;;;;;24.95;8.23;;;;;;;;;;4990949;28;20434;-78
2022/04/06 03:53:04;;;;;;;21.75;8.55;;;;;;;;;;5000502;28;20849;-74
2022/04/06 03:55:30;;;;;;;22.90;8.20;;;;;;;;;;5007977;28;20435;-76
2022/04/06 03:57:56;;;;;;;23.08;9.32;;;;;;;;;;4998372;28;20457;-76
2022/04/06 04:00:22;;;;;;;24.07;8.13;;;;;;;;;;4997758;28;20459;-77
2022/04/06 04:02:48;;;;;;;27.08;9.77;;;;;;;;;;4987299;28;21023;-76
2022/04/06 04:05:15;;;;;;;23.65;9.93;;;;;;;;;;4994056;28;20435;-76
2022/04/06 04:07:44;;;;;;;26.70;10.30;;;;;;;;;;4988864;28;20432;-77
2022/04/06 04:10:10;;;;;;;20.52;9.68;;;;;;;;;;4980514;28;20438;-76
2022/04/06 04:12:38;;;;;;;29.83;10.77;;;;;;;;;;4994835;28;21050;-77
2022/04/06 04:15:05;;;;;;;24.42;11.48;;;;;;;;;;4975860;28;20451;-75
2022/04/06 04:17:31;;;;;;;22.73;10.25;;;;;;;;;;4974816;28;20484;-76
2022/04/06 04:19:57;;;;;;;27.33;10.55;;;;;;;;;;4975708;28;20416;-77
2022/04/06 04:22:23;;;;;;;29.75;10.82;;;;;;;;;;4965149;28;20449;-77
2022/04/06 04:24:49;;;;;;;22.48;10.30;;;;;;;;;;4998859;28;20437;-77
2022/04/06 04:27:16;;;;;;;25.40;10.77;;;;;;;;;;4998485;28;20489;-76
2022/04/06 04:29:42;;;;;;;27.33;11.00;;;;;;;;;;5015051;28;20520;-77
2022/04/06 04:32:10;;;;;;;26.27;10.90;;;;;;;;;;4982870;28;20511;-76
2022/04/06 04:34:36;;;;;;;26.57;10.97;;;;;;;;;;4979066;28;20440;-76
2022/04/06 04:37:03;;;;;;;29.23;11.77;;;;;;;;;;4974895;28;20770;-76
2022/04/06 04:39:29;;;;;;;29.33;10.80;;;;;;;;;;4973757;28;20425;-76
2022/04/06 04:41:55;;;;;;;26.33;11.40;;;;;;;;;;4974548;28;20498;-76
2022/04/06 04:44:21;;;;;;;25.20;10.70;;;;;;;;;;4996400;28;20434;-75
2022/04/06 04:46:47;;;;;;;27.42;10.38;;;;;;;;;;4987593;28;20454;-75
2022/04/06 04:49:13;;;;;;;24.10;10.38;;;;;;;;;;4993594;28;20434;-75
2022/04/06 04:51:39;;;;;;;28.70;10.02;;;;;;;;;;4998272;28;20932;-75
2022/04/06 04:54:05;;;;;;;26.77;9.93;;;;;;;;;;4982168;28;20428;-76
2022/04/06 04:56:32;;;;;;;23.83;9.75;;;;;;;;;;4975650;28;20467;-75
2022/04/06 04:58:59;;;;;;;26.90;9.65;;;;;;;;;;4984526;28;20518;-75
2022/04/06 05:01:25;;;;;;;27.17;10.48;;;;;;;;;;4979529;28;20433;-75
2022/04/06 05:03:51;;;;;;;26.95;9.05;;;;;;;;;;4964241;28;20515;-75
2022/04/06 05:06:17;;;;;;;24.83;9.27;;;;;;;;;;4987576;28;20821;-75
2022/04/06 05:08:43;;;;;;;28.92;10.32;;;;;;;;;;4991673;28;20430;-75
2022/04/06 05:11:10;;;;;;;23.00;9.50;;;;;;;;;;4965897;28;20431;-75
2022/04/06 05:13:37;;;;;;;23.15;9.45;;;;;;;;;;4981485;28;20436;-74
2022/04/06 05:16:04;;;;;;;23.33;8.90;;;;;;;;;;4992679;28;20426;-75
2022/04/06 05:18:29;;;;;;;23.60;9.30;;;8.50;99.90;;;;;;4992503;28;20574;-75
2022/04/06 05:20:56;;;;;;;26.47;8.60;;;;;;;;;;4972686;28;20428;-74
2022/04/06 05:23:22;;;;;;;22.30;9.18;;;;;;;;;;4988256;28;20444;-75
2022/04/06 05:25:48;;;;;;;19.13;8.47;;;;;;;;;;4989939;28;20446;-74
2022/04/06 05:28:18;;;;;;;26.92;8.85;;;;;;;;;;4971635;28;20950;-75
2022/04/06 05:30:46;;;;;;;24.63;8.40;;;;;;;;;;5002097;28;20430;-76
2022/04/06 05:33:12;;;;;;;40.43;12.10;;;;;;;;;;4960710;28;20402;-76
2022/04/06 05:35:38;;;;;;;24.02;8.20;;;;;;;;;;5063213;28;20429;-76
2022/04/06 05:38:04;;;;;;;22.08;9.32;;;;;;;;;;5078597;28;20418;-75
2022/04/06 05:40:31;;;;;;;25.25;7.93;;;;;;;;;;5038447;28;20425;-76
2022/04/06 05:42:57;;;;;;;23.45;8.05;;;;;;;;;;4961535;28;20423;-76
2022/04/06 05:45:23;;;;;;;22.10;7.15;;;8.50;99.90;;;;;;5010667;28;20496;-76
2022/04/06 05:47:50;;;;;;;26.05;7.70;;;;;;;;;;4995471;28;20472;-77
2022/04/06 05:50:16;;;;;;;24.33;8.48;;;;;;;;;;4997232;28;20454;-76
2022/04/06 05:52:42;;;;;;;19.23;7.60;;;;;;;;;;4973805;28;20436;-76
2022/04/06 05:55:09;;;;;;;20.08;6.97;;;;;;;;;;4974399;28;20442;-76
2022/04/06 05:57:35;;;;;;;17.20;6.50;;;;;;;;;;4959134;28;20466;-77
2022/04/06 06:00:01;;;;;;;21.90;7.20;;;;;;;;;;4979645;28;20948;-77
2022/04/06 06:02:29;;;;;;;24.70;7.63;;;;;;;;;;4987830;28;20434;-78
2022/04/06 06:04:55;;;;;;;27.65;7.38;;;;;;;;;;4989317;28;20426;-78
2022/04/06 06:07:21;;;;;;;20.52;7.22;;;;;;;;;;5010446;28;20412;-77
2022/04/06 06:09:47;;;;;;;23.90;7.45;;;;;;;;;;4989413;28;21007;-78
2022/04/06 06:12:14;;;;;;;28.77;8.10;;;;;;;;;;4982363;28;20500;-78
2022/04/06 06:14:40;;;;;;;24.17;8.00;;;;;;;;;;4993695;28;20563;-78
2022/04/06 06:17:06;;;;;;;21.95;8.68;;;;;;;;;;5011022;28;20434;-77
2022/04/06 06:19:32;;;;;;;19.85;7.07;;;;;;;;;;4985014;28;20432;-78
2022/04/06 06:21:58;;;;;;;20.60;7.03;;;;;;;;;;4993470;28;20417;-79
2022/04/06 06:24:24;;;;;;;17.75;7.93;;;;;;;;;;4971583;28;20465;-79
2022/04/06 06:26:51;;;;;;;17.45;7.15;;;8.20;99.90;;;;;;4957275;28;20428;-79
2022/04/06 06:29:17;;;;;;;20.90;7.82;;;;;;;;;;4979765;28;20512;-79
2022/04/06 06:31:44;;;;;;;18.58;6.63;;;;;;;;;;4962228;28;20789;-79
2022/04/06 06:34:10;;;;;;;17.42;5.93;;;;;;;;;;4997469;28;20417;-79
2022/04/06 06:36:36;;;;;;;23.85;6.57;;;;;;;;;;5001722;28;20481;-79
2022/04/06 06:39:03;;;;;;;20.90;6.25;;;;;;;;;;5025779;28;20435;-78
2022/04/06 06:41:29;;;;;;;17.55;6.43;;;;;;;;;;4964713;28;20420;-79
2022/04/06 06:43:56;;;;;;;19.40;5.78;;;;;;;;;;4965139;28;20559;-78
2022/04/06 06:46:22;;;;;;;17.33;5.45;;;;;;;;;;4974040;28;20513;-79
2022/04/06 06:48:49;;;;;;;18.30;5.53;;;;;;;;;;4961636;28;20430;-79
2022/04/06 06:51:16;;;;;;;16.85;5.95;;;;;;;;;;4987272;28;20451;-77
2022/04/06 06:53:42;;;;;;;18.02;5.65;;;;;;;;;;4959332;28;20423;-77
2022/04/06 06:56:08;;;;;;;15.65;5.13;;;;;;;;;;4981589;28;20447;-78
2022/04/06 06:58:35;;;;;;;17.20;5.07;;;;;;;;;;5003457;28;20420;-78
2022/04/06 07:01:01;;;;;;;19.20;5.88;;;;;;;;;;4960780;28;20421;-78
2022/04/06 07:03:27;;;;;;;18.40;5.75;;;;;;;;;;4987561;28;20435;-79
2022/04/06 07:05:53;;;;;;;16.88;6.13;;;;;;;;;;4955602;28;20437;-78
2022/04/06 07:08:20;;;;;;;17.70;5.57;;;;;;;;;;4988814;28;20445;-78
2022/04/06 07:10:47;;;;;;;16.55;5.65;;;8.10;99.90;;;;;;4975763;28;20436;-78
2022/04/06 07:13:16;;;;;;;26.55;7.15;;;;;;;;;;4975689;28;20420;-78
2022/04/06 07:15:42;;;;;;;21.35;6.85;;;;;;;;;;4991894;28;20709;-77
2022/04/06 07:18:09;;;;;;;18.23;6.22;;;;;;;;;;5021223;28;20494;-76
2022/04/06 07:20:36;;;;;;;18.93;5.90;;;;;;;;;;4975041;28;20436;-79
2022/04/06 07:23:05;;;;;;;19.88;6.05;;;;;;;;;;4958781;28;20506;-78
2022/04/06 07:25:32;;;;;;;18.77;5.93;;;;;;;;;;4967944;28;20971;-77
2022/04/06 07:27:58;;;;;;;18.98;5.70;;;;;;;;;;5006593;28;20419;-77
2022/04/06 07:30:24;;;;;;;20.70;6.10;;;;;;;;;;4985366;28;20433;-77
2022/04/06 07:32:50;;;;;;;21.35;6.45;;;;;;;;;;4964803;28;20521;-75
2022/04/06 07:35:16;;;;;;;21.60;6.00;;;;;;;;;;5002042;28;20436;-77
2022/04/06 07:37:44;;;;;;;20.42;5.85;;;;;;;;;;4990100;28;20430;-77
2022/04/06 07:40:12;;;;;;;23.23;7.55;;;;;;;;;;4967049;28;20434;-77
2022/04/06 07:42:38;;;;;;;20.75;6.35;;;;;;;;;;4986982;28;20429;-77
2022/04/06 07:45:09;;;;;;;19.85;5.85;;;;;;;;;;4980337;28;20436;-80
2022/04/06 07:47:36;;;;;;;20.35;5.93;;;;;;;;;;4978673;28;20435;-79
2022/04/06 07:50:03;;;;;;;19.42;6.47;;;;;;;;;;4965167;28;20426;-79
2022/04/06 07:52:30;;;;;;;19.05;5.95;;;;;;;;;;4969987;28;20773;-78
2022/04/06 07:54:56;;;;;;;16.92;5.53;;;;;;;;;;4956954;28;20460;-79
2022/04/06 07:57:25;;;;;;;22.77;5.85;;;;;;;;;;4974696;28;20481;-78
2022/04/06 07:59:51;;;;;;;24.08;6.85;;;;;;;;;;4990455;28;20450;-78
2022/04/06 08:02:17;;;;;;;17.73;6.57;;;;;;;;;;4964514;28;20424;-78
2022/04/06 08:04:44;;;;;;;25.15;6.55;;;;;;;;;;4973534;28;20456;-79
2022/04/06 08:07:10;;;;;;;20.90;6.35;;;;;;;;;;4969268;28;20427;-79
2022/04/06 08:09:36;;;;;;;21.42;6.40;;;;;;;;;;4962979;28;20591;-78
2022/04/06 08:12:02;;;;;;;22.27;6.32;;;;;;;;;;4980594;28;20443;-77
2022/04/06 08:14:28;;;;;;;19.58;6.13;;;;;;;;;;4977657;28;20417;-78
2022/04/06 08:16:55;;;;;;;18.17;5.90;;;;;;;;;;5015349;28;20785;-78
2022/04/06 08:19:22;;;;;;;20.17;6.35;;;;;;;;;;4980847;28;20426;-79
2022/04/06 08:21:49;;;;;;;17.98;5.50;;;;;;;;;;4976612;28;20432;-78
2022/04/06 08:24:15;;;;;;;16.05;5.15;;;;;;;;;;4972123;28;20427;-79
2022/04/06 08:26:41;;;;;;;15.23;5.20;;;;;;;;;;4977178;28;20442;-78
2022/04/06 08:29:07;;;;;;;16.15;5.43;;;;;;;;;;4962551;28;20447;-78
2022/04/06 08:31:33;;;;;;;17.20;5.53;;;;;;;;;;4956805;28;20554;-79
2022/04/06 08:34:00;;;;;;;14.43;5.10;;;;;;;;;;4970612;28;20426;-79
2022/04/06 08:36:26;;;;;;;17.40;5.43;;;;;;;;;;4998854;28;20442;-79
2022/04/06 08:38:52;;;;;;;15.52;5.35;;;;;;;;;;4979410;28;20434;-80
2022/04/06 08:41:19;;;;;;;14.73;5.03;;;;;;;;;;5015244;28;20460;-79
2022/04/06 08:43:46;;;;;;;15.00;4.35;;;;;;;;;;4964742;28;20440;-78
2022/04/06 08:46:12;;;;;;;18.20;5.50;;;;;;;;;;4958859;28;20930;-79
2022/04/06 08:48:39;;;;;;;15.70;4.75;;;;;;;;;;4974139;28;20451;-78
2022/04/06 08:51:09;;;;;;;17.90;5.10;;;;;;;;;;4982510;28;20508;-78
2022/04/06 08:53:39;;;;;;;15.00;4.53;;;;;;;;;;4971607;28;20443;-78
2022/04/06 08:56:07;;;;;;;12.65;3.80;;;;;;;;;;4991351;28;20425;-80
2022/04/06 08:58:33;;;;;;;13.50;4.43;;;;;;;;;;4957802;28;21007;-78
2022/04/06 09:00:59;;;;;;;16.27;4.57;;;;;;;;;;4975504;28;20456;-79
2022/04/06 09:03:25;;;;;;;12.93;4.40;;;;;;;;;;4957859;28;20455;-80
2022/04/06 09:06:08;;;;;;;13.23;4.35;;;;;;;;;;4990644;28;20434;-80
2022/04/06 09:08:41;;;;;;;14.25;4.32;;;;;;;;;;4975429;28;20438;-79
2022/04/06 09:11:11;;;;;;;14.10;4.10;;;;;;;;;;5003705;28;20427;-79
2022/04/06 09:13:37;;;;;;;12.70;4.35;;;;;;;;;;5003017;28;20434;-77
2022/04/06 09:16:04;;;;;;;14.27;4.38;;;;;;;;;;5013643;28;20962;-80
2022/04/06 09:18:40;;;;;;;17.30;4.80;;;9.60;99.90;;;;;;4971978;28;20424;-79
2022/04/06 09:21:06;;;;;;;18.33;4.88;;;;;;;;;;4974875;28;20471;-79
2022/04/06 09:23:33;;;;;;;14.15;4.47;;;;;;;;;;4981440;28;20455;-80
2022/04/06 09:26:06;;;;;;;14.95;4.32;;;;;;;;;;4964232;28;20424;-79
2022/04/06 09:28:33;;;;;;;11.45;4.50;;;;;;;;;;4983897;28;20427;-79
2022/04/06 09:30:59;;;;;;;11.80;4.53;;;;;;;;;;4995632;28;20478;-78
2022/04/06 09:33:28;;;;;;;14.27;4.95;;;;;;;;;;4965219;28;20443;-79
2022/04/06 09:35:58;;;;;;;14.65;5.10;;;;;;;;;;4972707;28;20444;-79
2022/04/06 09:38:27;;;;;;;12.57;4.95;;;;;;;;;;4975137;28;20408;-79
2022/04/06 09:41:06;;;;;;;12.68;4.55;;;;;;;;;;4972451;28;20485;-79
2022/04/06 09:43:34;;;;;;;14.30;4.68;;;;;;;;;;4976752;28;20502;-80
2022/04/06 09:49:08;;;;;;;14.65;4.57;;;;;;;;;;4995860;28;20421;-79
2022/04/06 09:51:39;;;;;;;13.75;5.15;;;;;;;;;;4997647;28;20439;-79
2022/04/06 09:54:07;;;;;;;16.15;5.28;;;10.10;99.90;;;;;;4979623;28;20418;-79
2022/04/06 09:56:34;;;;;;;16.70;4.97;;;10.10;99.90;;;;;;4975404;28;20444;-80
2022/04/06 09:59:02;;;;;;;18.35;5.32;;;;;;;;;;4960382;28;20704;-80
2022/04/06 10:01:35;;;;;;;18.57;5.07;;;;;;;;;;4977795;28;20894;-81
2022/04/06 10:04:06;;;;;;;17.00;4.88;;;;;;;;;;4991717;28;20433;-79
2022/04/06 10:06:34;;;;;;;23.67;5.68;;;;;;;;;;4987260;28;20432;-80
2022/04/06 10:09:04;;;;;;;18.73;5.85;;;;;;;;;;4977591;28;20440;-80
2022/04/06 10:11:31;;;;;;;15.97;5.53;;;;;;;;;;4968639;28;20436;-80
2022/04/06 10:14:00;;;;;;;18.98;5.72;;;;;;;;;;4972684;28;20435;-80
2022/04/06 10:16:27;;;;;;;16.08;5.45;;;;;;;;;;4986783;28;20672;-80
2022/04/06 10:18:54;;;;;;;17.83;5.07;;;;;;;;;;4983448;28;20469;-78
2022/04/06 10:21:39;;;;;;;19.03;5.83;;;;;;;;;;5001966;28;20473;-80
2022/04/06 10:24:08;;;;;;;16.48;5.30;;;;;;;;;;4983527;28;20466;-78
2022/04/06 10:26:53;;;;;;;17.40;5.50;;;;;;;;;;4957756;28;21022;-79
2022/04/06 10:29:19;;;;;;;19.27;5.90;;;;;;;;;;4984512;28;20521;-79
2022/04/06 10:31:46;;;;;;;16.93;6.03;;;;;;;;;;4997667;28;20441;-80
2022/04/06 10:34:25;;;;;;;18.77;5.65;;;;;;;;;;4967351;28;20456;-80
2022/04/06 10:37:10;;;;;;;19.13;6.38;;;;;;;;;;4976509;28;20451;-80
2022/04/06 10:39:48;;;;;;;21.83;6.70;;;;;;;;;;4973714;28;20440;-80
2022/04/06 10:42:16;;;;;;;21.52;6.80;;;;;;;;;;4982794;28;20418;-83
2022/04/06 10:44:43;;;;;;;20.42;6.35;;;;;;;;;;4969958;28;20445;-82
2022/04/06 10:47:10;;;;;;;25.30;7.20;;;;;;;;;;4959380;28;20439;-83
2022/04/06 10:49:36;;;;;;;20.83;6.70;;;;;;;;;;4962375;28;20440;-83
2022/04/06 10:52:28;;;;;;;19.60;6.55;;;;;;;;;;4959027;28;20440;-83
2022/04/06 10:54:54;;;;;;;24.48;7.38;;;;;;;;;;4948974;28;21045;-82
2022/04/06 10:57:21;;;;;;;28.55;6.70;;;;;;;;;;4992283;28;20440;-82
2022/04/06 11:00:07;;;;;;;19.80;6.68;;;;;;;;;;4990096;28;20784;-82
2022/04/06 11:02:36;;;;;;;22.88;6.18;;;;;;;;;;4984387;28;20526;-81
2022/04/06 11:05:02;;;;;;;18.67;5.82;;;;;;;;;;4961841;28;20820;-84
2022/04/06 11:10:06;;;;;;;21.52;6.32;;;;;;;;;;4953672;28;20434;-81
2022/04/06 11:10:17;;;;;;;22.65;6.35;;;;;;;;;;4977421;28;20545;-82
2022/04/06 11:12:57;;;;;;;17.77;6.30;;;;;;;;;;4985467;28;20478;-81
2022/04/06 11:15:32;;;;;;;20.38;6.03;;;;;;;;;;4994603;28;20461;-82
2022/04/06 11:17:58;;;;;;;22.65;5.82;;;;;;;;;;5013000;28;20417;-82
2022/04/06 11:20:32;;;;;;;20.07;5.70;;;;;;;;;;4996071;28;20430;-84
2022/04/06 11:22:59;;;;;;;19.00;6.13;;;;;;;;;;4973006;28;20432;-83
2022/04/06 11:25:29;;;;;;;17.33;5.80;;;10.90;99.90;;;;;;4973668;28;20430;-84
2022/04/06 11:27:56;;;;;;;21.10;5.75;;;;;;;;;;4980053;28;20414;-82
2022/04/06 11:30:26;;;;;;;19.92;6.43;;;;;;;;;;4977503;28;20473;-82
2022/04/06 11:32:52;;;;;;;19.60;5.43;;;;;;;;;;4993683;28;20778;-83
2022/04/06 11:35:18;;;;;;;19.95;5.70;;;;;;;;;;4997405;28;20436;-81
2022/04/06 11:37:46;;;;;;;16.73;5.38;;;;;;;;;;4966412;28;20428;-83
2022/04/06 11:40:12;;;;;;;17.77;5.75;;;;;;;;;;4992251;28;20458;-83
2022/04/06 11:42:39;;;;;;;16.65;5.60;;;11.60;99.90;;;;;;4959125;28;20436;-82
2022/04/06 11:45:05;;;;;;;17.15;5.60;;;;;;;;;;4970499;28;20429;-81
2022/04/06 11:47:36;;;;;;;17.37;6.00;;;12.20;99.90;;;;;;4967529;28;20511;-83
2022/04/06 11:50:05;;;;;;;16.38;5.25;;;;;;;;;;4974807;28;20452;-82
2022/04/06 11:52:32;;;;;;;15.95;5.25;;;;;;;;;;4968812;28;20445;-83
2022/04/06 11:54:58;;;;;;;15.88;4.85;;;;;;;;;;4977663;28;20431;-81
2022/04/06 11:57:35;;;;;;;16.30;5.00;;;;;;;;;;4965127;28;20403;-82
2022/04/06 12:00:03;;;;;;;16.35;4.80;;;;;;;;;;4957255;28;20507;-82
2022/04/06 12:02:45;;;;;;;15.63;4.13;;;;;;;;;;4958507;28;20738;-83
2022/04/06 12:05:11;;;;;;;13.43;4.22;;;;;;;;;;4970843;28;20437;-83
2022/04/06 12:07:37;;;;;;;16.20;4.93;;;;;;;;;;4991978;28;20421;-83
2022/04/06 12:10:04;;;;;;;16.15;4.82;;;;;;;;;;4969509;28;20436;-82
2022/04/06 12:12:30;;;;;;;21.55;4.97;;;;;;;;;;4968559;28;20427;-82
2022/04/06 12:14:57;;;;;;;16.67;3.70;;;;;;;;;;4965600;28;20434;-82
2022/04/06 12:17:23;;;;;;;12.25;4.20;;;;;;;;;;4973853;28;20472;-83
2022/04/06 12:19:49;;;;;;;14.50;4.70;;;;;;;;;;4953814;28;20427;-84
2022/04/06 12:22:16;;;;;;;15.93;4.35;;;;;;;;;;4957574;28;20437;-84
2022/04/06 12:24:43;;;;;;;13.30;4.07;;;;;;;;;;4987698;28;20435;-84
2022/04/06 12:27:10;;;;;;;13.77;3.90;;;;;;;;;;4952918;28;20479;-82
2022/04/06 12:29:38;;;;;;;13.57;4.50;;;;;;;;;;4966504;28;20437;-83
2022/04/06 12:32:05;;;;;;;11.63;3.60;;;;;;;;;;4954208;28;20623;-82
2022/04/06 12:34:40;;;;;;;11.07;3.60;;;;;;;;;;4969040;28;20421;-84
2022/04/06 12:39:54;;;;;;;15.87;4.13;;;;;;;;;;5047676;28;20787;-83
2022/04/06 12:42:22;;;;;;;12.73;3.67;;;;;;;;;;4973031;28;20434;-82
2022/04/06 12:44:56;;;;;;;15.13;4.13;;;;;;;;;;4972727;28;20436;-83
2022/04/06 12:47:23;;;;;;;13.73;3.80;;;;;;;;;;4971998;28;20427;-82
2022/04/06 12:49:49;;;;;;;12.93;3.72;;;;;;;;;;4970547;28;20536;-83
2022/04/06 12:52:15;;;;;;;12.23;3.70;;;;;;;;;;4964282;28;20591;-83
2022/04/06 12:54:43;;;;;;;14.23;3.90;;;;;;;;;;4959527;28;20460;-83
2022/04/06 12:57:17;;;;;;;10.43;3.58;;;12.00;99.90;;;;;;4977838;28;20466;-84
2022/04/06 12:59:59;;;;;;;13.55;4.03;;;;;;;;;;4981693;28;20440;-83
2022/04/06 13:02:32;;;;;;;13.80;3.75;;;;;;;;;;4954583;28;20468;-83
2022/04/06 13:05:03;;;;;;;13.73;4.05;;;;;;;;;;4971502;28;20454;-82
2022/04/06 13:07:30;;;;;;;13.10;3.85;;;;;;;;;;4963503;28;20438;-83
2022/04/06 13:09:57;;;;;;;12.13;3.40;;;;;;;;;;4977528;28;20430;-84
2022/04/06 13:12:27;;;;;;;14.75;3.85;;;;;;;;;;5000213;28;20441;-82
2022/04/06 13:14:56;;;;;;;16.77;4.10;;;;;;;;;;4976157;28;20474;-81
2022/04/06 13:17:22;;;;;;;15.10;3.83;;;;;;;;;;4979957;28;20512;-82
2022/04/06 13:19:49;;;;;;;12.23;3.95;;;;;;;;;;4982786;28;20569;-83
2022/04/06 13:22:16;;;;;;;14.20;3.40;;;;;;;;;;4956750;28;20450;-82
2022/04/06 13:24:42;;;;;;;13.43;3.83;;;;;;;;;;4967250;28;20757;-82
2022/04/06 13:27:09;;;;;;;13.27;3.88;;;;;;;;;;4967863;28;20422;-83
2022/04/06 13:29:35;;;;;;;15.57;3.97;;;12.30;99.90;;;;;;4963540;28;20513;-83
2022/04/06 13:32:03;;;;;;;12.30;3.35;;;;;;;;;;4981831;28;20421;-83
2022/04/06 13:34:29;;;;;;;10.77;3.17;;;12.00;99.90;;;;;;4994464;28;20443;-80
2022/04/06 13:36:55;;;;;;;13.13;3.40;;;;;;;;;;4970650;28;20433;-82
2022/04/06 13:39:22;;;;;;;15.40;3.20;;;;;;;;;;4966679;28;20436;-81
2022/04/06 13:41:52;;;;;;;12.65;3.47;;;;;;;;;;4957959;28;20452;-83
2022/04/06 13:44:20;;;;;;;10.57;3.22;;;;;;;;;;4965693;28;20428;-83
2022/04/06 13:46:48;;;;;;;10.32;3.40;;;;;;;;;;4956067;28;20497;-82
2022/04/06 13:49:14;;;;;;;10.27;3.05;;;;;;;;;;4988675;28;20431;-81
2022/04/06 13:51:41;;;;;;;9.97;2.70;;;;;;;;;;4951775;28;20439;-82
2022/04/06 13:54:08;;;;;;;10.90;3.47;;;;;;;;;;4948232;28;20532;-81
2022/04/06 13:56:34;;;;;;;8.48;3.00;;;;;;;;;;4961521;28;20444;-81
2022/04/06 13:59:00;;;;;;;12.15;3.78;;;;;;;;;;4971893;28;20434;-81
2022/04/06 14:01:26;;;;;;;8.02;3.10;;;;;;;;;;4974257;28;20423;-80
2022/04/06 14:03:52;;;;;;;11.68;3.83;;;;;;;;;;4957977;28;20418;-78
2022/04/06 14:06:18;;;;;;;7.15;3.40;;;;;;;;;;4973322;28;20434;-80
2022/04/06 14:08:44;;;;;;;10.77;3.60;;;;;;;;;;4965999;28;20454;-79
2022/04/06 14:11:11;;;;;;;8.57;3.38;;;;;;;;;;4945446;28;21567;-78
2022/04/06 14:13:37;;;;;;;9.38;3.13;;;;;;;;;;4963251;28;20561;-77
2022/04/06 14:16:03;;;;;;;8.25;3.20;;;;;;;;;;5017333;28;20443;-79
2022/04/06 14:18:29;;;;;;;8.70;3.60;;;;;;;;;;4978730;28;20495;-79
2022/04/06 14:20:56;;;;;;;7.85;3.40;;;;;;;;;;4959369;28;20529;-79
2022/04/06 14:23:22;;;;;;;7.00;3.60;;;;;;;;;;4953148;28;20812;-79
2022/04/06 14:25:48;;;;;;;10.63;3.53;;;;;;;;;;4966862;28;20427;-79
2022/04/06 14:28:14;;;;;;;6.65;3.70;;;;;;;;;;4976212;28;20439;-80
2022/04/06 14:30:48;;;;;;;9.77;4.40;;;10.60;99.90;;;;;;4960641;28;20467;-80
2022/04/06 14:33:15;;;;;;;9.98;4.72;;;;;;;;;;4958771;28;20464;-79